sensor_id;sensor_type;location;lat;lon;timestamp;P1;durP1;ratioP1;P2;durP2;ratioP2
72920;SDS011;61064;51.654;5.476;2022-11-22T00:00:04;13.57;;;3.90;;
72920;SDS011;61064;51.654;5.476;2022-11-22T00:02:32;14.93;;;3.53;;
72920;SDS011;61064;51.654;5.476;2022-11-22T00:04:59;13.93;;;4.00;;
72920;SDS011;61064;51.654;5.476;2022-11-22T00:07:24;14.77;;;4.27;;
72920;SDS011;61064;51.654;5.476;2022-11-22T00:09:50;13.63;;;3.83;;
72920;SDS011;61064;51.654;5.476;2022-11-22T00:12:15;9.97;;;3.83;;
72920;SDS011;61064;51.654;5.476;2022-11-22T00:14:40;10.93;;;3.30;;
72920;SDS011;61064;51.654;5.476;2022-11-22T00:17:06;12.77;;;3.97;;
72920;SDS011;61064;51.654;5.476;2022-11-22T00:19:31;11.83;;;3.63;;
72920;SDS011;61064;51.654;5.476;2022-11-22T00:21:57;12.98;;;3.78;;
72920;SDS011;61064;51.654;5.476;2022-11-22T00:24:22;16.47;;;4.13;;
72920;SDS011;61064;51.654;5.476;2022-11-22T00:26:48;12.33;;;3.60;;
72920;SDS011;61064;51.654;5.476;2022-11-22T00:29:13;11.80;;;3.30;;
72920;SDS011;61064;51.654;5.476;2022-11-22T00:31:38;13.90;;;3.83;;
72920;SDS011;61064;51.654;5.476;2022-11-22T00:34:04;12.15;;;3.05;;
72920;SDS011;61064;51.654;5.476;2022-11-22T00:36:29;13.93;;;3.63;;
72920;SDS011;61064;51.654;5.476;2022-11-22T00:38:54;14.23;;;3.30;;
72920;SDS011;61064;51.654;5.476;2022-11-22T00:41:20;10.10;;;3.63;;
72920;SDS011;61064;51.654;5.476;2022-11-22T00:43:45;10.60;;;3.50;;
72920;SDS011;61064;51.654;5.476;2022-11-22T00:46:11;14.45;;;3.80;;
72920;SDS011;61064;51.654;5.476;2022-11-22T00:48:36;14.37;;;3.30;;
72920;SDS011;61064;51.654;5.476;2022-11-22T00:51:02;13.17;;;3.63;;
72920;SDS011;61064;51.654;5.476;2022-11-22T00:53:28;12.07;;;3.13;;
72920;SDS011;61064;51.654;5.476;2022-11-22T00:55:54;11.27;;;2.93;;
72920;SDS011;61064;51.654;5.476;2022-11-22T00:58:19;11.47;;;3.10;;
72920;SDS011;61064;51.654;5.476;2022-11-22T01:00:44;9.88;;;3.03;;
72920;SDS011;61064;51.654;5.476;2022-11-22T01:03:10;12.40;;;3.17;;
72920;SDS011;61064;51.654;5.476;2022-11-22T01:05:37;8.25;;;2.75;;
72920;SDS011;61064;51.654;5.476;2022-11-22T01:08:03;13.83;;;3.20;;
72920;SDS011;61064;51.654;5.476;2022-11-22T01:10:28;13.53;;;2.80;;
72920;SDS011;61064;51.654;5.476;2022-11-22T01:12:55;10.75;;;2.60;;
72920;SDS011;61064;51.654;5.476;2022-11-22T01:15:23;8.73;;;2.80;;
72920;SDS011;61064;51.654;5.476;2022-11-22T01:17:49;10.90;;;2.63;;
72920;SDS011;61064;51.654;5.476;2022-11-22T01:20:14;11.68;;;2.90;;
72920;SDS011;61064;51.654;5.476;2022-11-22T01:22:40;10.53;;;2.60;;
72920;SDS011;61064;51.654;5.476;2022-11-22T01:25:05;9.13;;;2.50;;
72920;SDS011;61064;51.654;5.476;2022-11-22T01:27:32;11.80;;;2.90;;
72920;SDS011;61064;51.654;5.476;2022-11-22T01:29:58;11.93;;;2.63;;
72920;SDS011;61064;51.654;5.476;2022-11-22T01:32:23;10.07;;;2.33;;
72920;SDS011;61064;51.654;5.476;2022-11-22T01:34:49;9.63;;;2.40;;
72920;SDS011;61064;51.654;5.476;2022-11-22T01:37:15;11.63;;;2.63;;
72920;SDS011;61064;51.654;5.476;2022-11-22T01:39:40;12.35;;;2.30;;
72920;SDS011;61064;51.654;5.476;2022-11-22T01:42:06;9.80;;;2.17;;
72920;SDS011;61064;51.654;5.476;2022-11-22T01:44:31;10.73;;;2.00;;
72920;SDS011;61064;51.654;5.476;2022-11-22T01:47:09;10.35;;;2.30;;
72920;SDS011;61064;51.654;5.476;2022-11-22T01:49:41;11.30;;;2.00;;
72920;SDS011;61064;51.654;5.476;2022-11-22T01:52:16;9.67;;;2.40;;
72920;SDS011;61064;51.654;5.476;2022-11-22T01:54:45;9.32;;;1.90;;
72920;SDS011;61064;51.654;5.476;2022-11-22T01:57:17;9.07;;;2.30;;
72920;SDS011;61064;51.654;5.476;2022-11-22T01:59:50;10.68;;;2.42;;
72920;SDS011;61064;51.654;5.476;2022-11-22T02:02:19;9.32;;;1.85;;
72920;SDS011;61064;51.654;5.476;2022-11-22T02:04:45;10.27;;;1.77;;
72920;SDS011;61064;51.654;5.476;2022-11-22T02:07:13;13.48;;;1.80;;
72920;SDS011;61064;51.654;5.476;2022-11-22T02:09:44;11.88;;;1.85;;
72920;SDS011;61064;51.654;5.476;2022-11-22T02:12:12;14.65;;;2.13;;
72920;SDS011;61064;51.654;5.476;2022-11-22T02:14:39;11.10;;;1.67;;
72920;SDS011;61064;51.654;5.476;2022-11-22T02:17:05;12.25;;;2.03;;
72920;SDS011;61064;51.654;5.476;2022-11-22T02:19:47;13.75;;;1.58;;
72920;SDS011;61064;51.654;5.476;2022-11-22T02:24:53;11.30;;;1.40;;
72920;SDS011;61064;51.654;5.476;2022-11-22T02:27:21;13.30;;;1.80;;
72920;SDS011;61064;51.654;5.476;2022-11-22T02:29:47;13.40;;;2.10;;
72920;SDS011;61064;51.654;5.476;2022-11-22T02:32:13;10.90;;;1.53;;
72920;SDS011;61064;51.654;5.476;2022-11-22T02:34:45;8.53;;;1.47;;
72920;SDS011;61064;51.654;5.476;2022-11-22T02:37:16;12.45;;;1.50;;
72920;SDS011;61064;51.654;5.476;2022-11-22T02:39:46;14.60;;;1.80;;
72920;SDS011;61064;51.654;5.476;2022-11-22T02:42:15;10.00;;;1.40;;
72920;SDS011;61064;51.654;5.476;2022-11-22T02:44:40;15.47;;;1.60;;
72920;SDS011;61064;51.654;5.476;2022-11-22T02:47:06;10.03;;;1.63;;
72920;SDS011;61064;51.654;5.476;2022-11-22T02:49:31;10.73;;;1.60;;
72920;SDS011;61064;51.654;5.476;2022-11-22T02:51:57;12.23;;;1.60;;
72920;SDS011;61064;51.654;5.476;2022-11-22T02:54:22;13.17;;;1.40;;
72920;SDS011;61064;51.654;5.476;2022-11-22T02:56:47;14.50;;;1.43;;
72920;SDS011;61064;51.654;5.476;2022-11-22T02:59:13;13.30;;;1.40;;
72920;SDS011;61064;51.654;5.476;2022-11-22T03:01:39;13.07;;;1.53;;
72920;SDS011;61064;51.654;5.476;2022-11-22T03:04:05;9.18;;;1.20;;
72920;SDS011;61064;51.654;5.476;2022-11-22T03:06:30;11.73;;;2.27;;
72920;SDS011;61064;51.654;5.476;2022-11-22T03:08:56;11.40;;;1.30;;
72920;SDS011;61064;51.654;5.476;2022-11-22T03:11:21;14.60;;;1.67;;
72920;SDS011;61064;51.654;5.476;2022-11-22T03:13:46;13.52;;;1.35;;
72920;SDS011;61064;51.654;5.476;2022-11-22T03:16:12;16.53;;;1.57;;
72920;SDS011;61064;51.654;5.476;2022-11-22T03:18:37;18.07;;;1.83;;
72920;SDS011;61064;51.654;5.476;2022-11-22T03:21:06;13.80;;;1.30;;
72920;SDS011;61064;51.654;5.476;2022-11-22T03:23:33;12.55;;;1.40;;
72920;SDS011;61064;51.654;5.476;2022-11-22T03:26:05;11.55;;;1.75;;
72920;SDS011;61064;51.654;5.476;2022-11-22T03:28:31;16.08;;;1.40;;
72920;SDS011;61064;51.654;5.476;2022-11-22T03:30:56;11.83;;;1.60;;
72920;SDS011;61064;51.654;5.476;2022-11-22T03:33:23;14.50;;;1.50;;
72920;SDS011;61064;51.654;5.476;2022-11-22T03:35:48;10.95;;;1.48;;
72920;SDS011;61064;51.654;5.476;2022-11-22T03:38:13;13.77;;;1.50;;
72920;SDS011;61064;51.654;5.476;2022-11-22T03:40:39;13.37;;;1.43;;
72920;SDS011;61064;51.654;5.476;2022-11-22T03:43:04;12.67;;;1.80;;
72920;SDS011;61064;51.654;5.476;2022-11-22T03:45:32;15.07;;;1.30;;
72920;SDS011;61064;51.654;5.476;2022-11-22T03:47:57;13.40;;;1.37;;
72920;SDS011;61064;51.654;5.476;2022-11-22T03:50:22;13.70;;;1.10;;
72920;SDS011;61064;51.654;5.476;2022-11-22T03:52:48;10.33;;;1.27;;
72920;SDS011;61064;51.654;5.476;2022-11-22T03:55:14;13.25;;;1.70;;
72920;SDS011;61064;51.654;5.476;2022-11-22T03:57:39;16.40;;;1.40;;
72920;SDS011;61064;51.654;5.476;2022-11-22T04:00:06;13.40;;;2.35;;
72920;SDS011;61064;51.654;5.476;2022-11-22T04:02:32;10.27;;;1.43;;
72920;SDS011;61064;51.654;5.476;2022-11-22T04:05:00;11.20;;;1.50;;
72920;SDS011;61064;51.654;5.476;2022-11-22T04:07:27;16.27;;;1.42;;
72920;SDS011;61064;51.654;5.476;2022-11-22T04:09:52;12.93;;;1.57;;
72920;SDS011;61064;51.654;5.476;2022-11-22T04:12:18;13.20;;;1.43;;
72920;SDS011;61064;51.654;5.476;2022-11-22T04:14:43;18.83;;;1.53;;
72920;SDS011;61064;51.654;5.476;2022-11-22T04:17:27;10.48;;;1.27;;
72920;SDS011;61064;51.654;5.476;2022-11-22T04:20:05;14.52;;;1.30;;
72920;SDS011;61064;51.654;5.476;2022-11-22T04:22:55;10.23;;;1.80;;
72920;SDS011;61064;51.654;5.476;2022-11-22T04:25:24;12.45;;;1.23;;
72920;SDS011;61064;51.654;5.476;2022-11-22T04:27:51;17.03;;;1.73;;
72920;SDS011;61064;51.654;5.476;2022-11-22T04:30:17;9.98;;;1.25;;
72920;SDS011;61064;51.654;5.476;2022-11-22T04:32:42;14.47;;;1.40;;
72920;SDS011;61064;51.654;5.476;2022-11-22T04:35:14;10.82;;;1.10;;
72920;SDS011;61064;51.654;5.476;2022-11-22T04:37:42;10.57;;;1.58;;
72920;SDS011;61064;51.654;5.476;2022-11-22T04:40:14;10.67;;;1.43;;
72920;SDS011;61064;51.654;5.476;2022-11-22T04:42:39;18.95;;;1.40;;
72920;SDS011;61064;51.654;5.476;2022-11-22T04:45:23;14.90;;;1.47;;
72920;SDS011;61064;51.654;5.476;2022-11-22T04:47:49;13.20;;;1.73;;
72920;SDS011;61064;51.654;5.476;2022-11-22T04:50:23;13.63;;;1.55;;
72920;SDS011;61064;51.654;5.476;2022-11-22T04:53:08;13.18;;;1.30;;
72920;SDS011;61064;51.654;5.476;2022-11-22T04:55:33;10.87;;;1.60;;
72920;SDS011;61064;51.654;5.476;2022-11-22T04:57:59;15.77;;;1.63;;
72920;SDS011;61064;51.654;5.476;2022-11-22T05:00:24;12.00;;;1.40;;
72920;SDS011;61064;51.654;5.476;2022-11-22T05:02:51;12.57;;;1.80;;
72920;SDS011;61064;51.654;5.476;2022-11-22T05:05:17;13.00;;;1.40;;
72920;SDS011;61064;51.654;5.476;2022-11-22T05:07:42;13.15;;;1.58;;
72920;SDS011;61064;51.654;5.476;2022-11-22T05:10:08;13.63;;;1.80;;
72920;SDS011;61064;51.654;5.476;2022-11-22T05:12:34;12.77;;;1.40;;
72920;SDS011;61064;51.654;5.476;2022-11-22T05:14:59;12.37;;;1.30;;
72920;SDS011;61064;51.654;5.476;2022-11-22T05:17:25;9.20;;;1.20;;
72920;SDS011;61064;51.654;5.476;2022-11-22T05:19:50;13.50;;;1.70;;
72920;SDS011;61064;51.654;5.476;2022-11-22T05:22:15;13.73;;;1.60;;
72920;SDS011;61064;51.654;5.476;2022-11-22T05:24:41;11.20;;;1.20;;
72920;SDS011;61064;51.654;5.476;2022-11-22T05:27:06;11.35;;;1.33;;
72920;SDS011;61064;51.654;5.476;2022-11-22T05:29:32;15.73;;;1.40;;
72920;SDS011;61064;51.654;5.476;2022-11-22T05:32:00;10.53;;;1.10;;
72920;SDS011;61064;51.654;5.476;2022-11-22T05:34:25;7.97;;;0.93;;
72920;SDS011;61064;51.654;5.476;2022-11-22T05:36:51;12.27;;;1.30;;
72920;SDS011;61064;51.654;5.476;2022-11-22T05:39:16;12.57;;;1.53;;
72920;SDS011;61064;51.654;5.476;2022-11-22T05:41:41;13.00;;;1.60;;
72920;SDS011;61064;51.654;5.476;2022-11-22T05:44:20;12.25;;;1.40;;
72920;SDS011;61064;51.654;5.476;2022-11-22T05:46:46;10.40;;;1.20;;
72920;SDS011;61064;51.654;5.476;2022-11-22T05:49:11;13.37;;;1.37;;
72920;SDS011;61064;51.654;5.476;2022-11-22T05:51:37;8.97;;;0.97;;
72920;SDS011;61064;51.654;5.476;2022-11-22T05:54:02;11.63;;;1.40;;
72920;SDS011;61064;51.654;5.476;2022-11-22T05:56:28;10.57;;;1.23;;
72920;SDS011;61064;51.654;5.476;2022-11-22T05:58:53;9.83;;;1.53;;
72920;SDS011;61064;51.654;5.476;2022-11-22T06:01:19;9.47;;;1.30;;
72920;SDS011;61064;51.654;5.476;2022-11-22T06:03:48;8.43;;;0.93;;
72920;SDS011;61064;51.654;5.476;2022-11-22T06:06:14;13.18;;;1.40;;
72920;SDS011;61064;51.654;5.476;2022-11-22T06:08:41;7.15;;;1.15;;
72920;SDS011;61064;51.654;5.476;2022-11-22T06:11:14;11.17;;;1.10;;
72920;SDS011;61064;51.654;5.476;2022-11-22T06:13:48;9.52;;;1.17;;
72920;SDS011;61064;51.654;5.476;2022-11-22T06:16:15;9.65;;;1.58;;
72920;SDS011;61064;51.654;5.476;2022-11-22T06:18:41;12.23;;;1.60;;
72920;SDS011;61064;51.654;5.476;2022-11-22T06:21:08;10.63;;;1.27;;
72920;SDS011;61064;51.654;5.476;2022-11-22T06:23:36;10.25;;;1.30;;
72920;SDS011;61064;51.654;5.476;2022-11-22T06:26:02;9.43;;;1.20;;
72920;SDS011;61064;51.654;5.476;2022-11-22T06:28:30;10.05;;;1.50;;
72920;SDS011;61064;51.654;5.476;2022-11-22T06:31:00;11.75;;;1.35;;
72920;SDS011;61064;51.654;5.476;2022-11-22T06:33:33;10.33;;;1.00;;
72920;SDS011;61064;51.654;5.476;2022-11-22T06:36:02;13.43;;;1.35;;
72920;SDS011;61064;51.654;5.476;2022-11-22T06:38:29;10.95;;;1.45;;
72920;SDS011;61064;51.654;5.476;2022-11-22T06:40:58;9.67;;;1.07;;
72920;SDS011;61064;51.654;5.476;2022-11-22T06:43:28;10.75;;;1.60;;
72920;SDS011;61064;51.654;5.476;2022-11-22T06:45:54;9.63;;;1.23;;
72920;SDS011;61064;51.654;5.476;2022-11-22T06:48:20;11.85;;;1.60;;
72920;SDS011;61064;51.654;5.476;2022-11-22T06:50:46;11.37;;;1.67;;
72920;SDS011;61064;51.654;5.476;2022-11-22T06:53:11;9.10;;;1.40;;
72920;SDS011;61064;51.654;5.476;2022-11-22T06:55:36;9.90;;;1.40;;
72920;SDS011;61064;51.654;5.476;2022-11-22T06:58:02;11.07;;;1.73;;
72920;SDS011;61064;51.654;5.476;2022-11-22T07:00:27;12.30;;;1.50;;
72920;SDS011;61064;51.654;5.476;2022-11-22T07:02:52;14.80;;;1.63;;
72920;SDS011;61064;51.654;5.476;2022-11-22T07:05:17;12.67;;;1.53;;
72920;SDS011;61064;51.654;5.476;2022-11-22T07:07:43;9.67;;;1.10;;
72920;SDS011;61064;51.654;5.476;2022-11-22T07:10:08;10.63;;;1.63;;
72920;SDS011;61064;51.654;5.476;2022-11-22T07:12:34;11.52;;;1.42;;
72920;SDS011;61064;51.654;5.476;2022-11-22T07:14:59;6.90;;;1.40;;
72920;SDS011;61064;51.654;5.476;2022-11-22T07:17:24;10.33;;;1.50;;
72920;SDS011;61064;51.654;5.476;2022-11-22T07:19:49;9.00;;;1.43;;
72920;SDS011;61064;51.654;5.476;2022-11-22T07:22:15;10.23;;;1.83;;
72920;SDS011;61064;51.654;5.476;2022-11-22T07:24:40;13.93;;;1.50;;
72920;SDS011;61064;51.654;5.476;2022-11-22T07:27:05;8.27;;;1.20;;
72920;SDS011;61064;51.654;5.476;2022-11-22T07:29:31;10.67;;;1.47;;
72920;SDS011;61064;51.654;5.476;2022-11-22T07:31:56;9.87;;;1.40;;
72920;SDS011;61064;51.654;5.476;2022-11-22T07:34:21;11.50;;;1.30;;
72920;SDS011;61064;51.654;5.476;2022-11-22T07:36:46;10.80;;;1.50;;
72920;SDS011;61064;51.654;5.476;2022-11-22T07:39:14;10.13;;;1.35;;
72920;SDS011;61064;51.654;5.476;2022-11-22T07:41:40;11.03;;;1.40;;
72920;SDS011;61064;51.654;5.476;2022-11-22T07:44:05;7.47;;;1.10;;
72920;SDS011;61064;51.654;5.476;2022-11-22T07:46:30;11.10;;;1.50;;
72920;SDS011;61064;51.654;5.476;2022-11-22T07:48:57;11.87;;;1.50;;
72920;SDS011;61064;51.654;5.476;2022-11-22T07:51:23;7.25;;;1.58;;
72920;SDS011;61064;51.654;5.476;2022-11-22T07:53:48;9.13;;;1.35;;
72920;SDS011;61064;51.654;5.476;2022-11-22T07:56:14;8.07;;;1.20;;
72920;SDS011;61064;51.654;5.476;2022-11-22T07:58:40;9.57;;;1.17;;
72920;SDS011;61064;51.654;5.476;2022-11-22T08:01:06;10.80;;;1.43;;
72920;SDS011;61064;51.654;5.476;2022-11-22T08:03:33;8.30;;;1.30;;
72920;SDS011;61064;51.654;5.476;2022-11-22T08:05:59;11.40;;;1.35;;
72920;SDS011;61064;51.654;5.476;2022-11-22T08:08:25;14.95;;;1.40;;
72920;SDS011;61064;51.654;5.476;2022-11-22T08:10:50;12.10;;;1.50;;
72920;SDS011;61064;51.654;5.476;2022-11-22T08:13:16;11.57;;;1.70;;
72920;SDS011;61064;51.654;5.476;2022-11-22T08:15:41;11.77;;;2.13;;
72920;SDS011;61064;51.654;5.476;2022-11-22T08:18:06;12.18;;;1.27;;
72920;SDS011;61064;51.654;5.476;2022-11-22T08:20:32;9.70;;;1.40;;
72920;SDS011;61064;51.654;5.476;2022-11-22T08:22:57;11.70;;;1.40;;
72920;SDS011;61064;51.654;5.476;2022-11-22T08:25:22;11.93;;;1.50;;
72920;SDS011;61064;51.654;5.476;2022-11-22T08:27:48;11.40;;;1.90;;
72920;SDS011;61064;51.654;5.476;2022-11-22T08:30:13;13.67;;;1.40;;
72920;SDS011;61064;51.654;5.476;2022-11-22T08:32:39;9.18;;;1.30;;
72920;SDS011;61064;51.654;5.476;2022-11-22T08:35:04;11.47;;;1.30;;
72920;SDS011;61064;51.654;5.476;2022-11-22T08:37:30;10.30;;;1.50;;
72920;SDS011;61064;51.654;5.476;2022-11-22T08:39:55;9.53;;;1.20;;
72920;SDS011;61064;51.654;5.476;2022-11-22T08:42:21;10.25;;;1.60;;
72920;SDS011;61064;51.654;5.476;2022-11-22T08:44:47;9.57;;;1.60;;
72920;SDS011;61064;51.654;5.476;2022-11-22T08:47:12;10.07;;;1.10;;
72920;SDS011;61064;51.654;5.476;2022-11-22T08:49:37;8.70;;;1.27;;
72920;SDS011;61064;51.654;5.476;2022-11-22T08:52:03;9.67;;;1.40;;
72920;SDS011;61064;51.654;5.476;2022-11-22T08:54:28;11.27;;;1.40;;
72920;SDS011;61064;51.654;5.476;2022-11-22T08:56:53;9.37;;;1.30;;
72920;SDS011;61064;51.654;5.476;2022-11-22T08:59:19;7.13;;;1.13;;
72920;SDS011;61064;51.654;5.476;2022-11-22T09:01:44;6.87;;;1.20;;
72920;SDS011;61064;51.654;5.476;2022-11-22T09:04:09;8.70;;;1.23;;
72920;SDS011;61064;51.654;5.476;2022-11-22T09:06:35;13.03;;;1.47;;
72920;SDS011;61064;51.654;5.476;2022-11-22T09:09:00;5.87;;;1.00;;
72920;SDS011;61064;51.654;5.476;2022-11-22T09:11:25;10.63;;;1.17;;
72920;SDS011;61064;51.654;5.476;2022-11-22T09:13:50;9.20;;;1.40;;
72920;SDS011;61064;51.654;5.476;2022-11-22T09:16:17;7.97;;;1.00;;
72920;SDS011;61064;51.654;5.476;2022-11-22T09:18:43;8.07;;;1.23;;
72920;SDS011;61064;51.654;5.476;2022-11-22T09:21:11;8.73;;;1.93;;
72920;SDS011;61064;51.654;5.476;2022-11-22T09:23:42;8.65;;;1.10;;
72920;SDS011;61064;51.654;5.476;2022-11-22T09:26:09;8.55;;;1.10;;
72920;SDS011;61064;51.654;5.476;2022-11-22T09:28:36;6.45;;;1.00;;
72920;SDS011;61064;51.654;5.476;2022-11-22T09:31:02;8.83;;;1.30;;
72920;SDS011;61064;51.654;5.476;2022-11-22T09:33:30;12.60;;;1.40;;
72920;SDS011;61064;51.654;5.476;2022-11-22T09:36:03;9.90;;;1.17;;
72920;SDS011;61064;51.654;5.476;2022-11-22T09:38:33;8.65;;;1.20;;
72920;SDS011;61064;51.654;5.476;2022-11-22T09:41:00;9.75;;;1.63;;
72920;SDS011;61064;51.654;5.476;2022-11-22T09:48:54;7.40;;;1.30;;
72920;SDS011;61064;51.654;5.476;2022-11-22T09:57:18;9.77;;;1.42;;
72920;SDS011;61064;51.654;5.476;2022-11-22T09:59:49;8.25;;;1.33;;
72920;SDS011;61064;51.654;5.476;2022-11-22T10:02:32;6.70;;;1.10;;
72920;SDS011;61064;51.654;5.476;2022-11-22T10:05:02;9.48;;;1.45;;
72920;SDS011;61064;51.654;5.476;2022-11-22T10:07:38;9.63;;;1.10;;
72920;SDS011;61064;51.654;5.476;2022-11-22T10:10:12;4.72;;;0.90;;
72920;SDS011;61064;51.654;5.476;2022-11-22T10:12:47;8.98;;;1.20;;
72920;SDS011;61064;51.654;5.476;2022-11-22T10:15:43;8.53;;;1.00;;
72920;SDS011;61064;51.654;5.476;2022-11-22T10:18:22;5.90;;;0.95;;
72920;SDS011;61064;51.654;5.476;2022-11-22T10:20:55;5.95;;;0.88;;
72920;SDS011;61064;51.654;5.476;2022-11-22T10:23:22;9.70;;;1.10;;
72920;SDS011;61064;51.654;5.476;2022-11-22T10:25:55;7.38;;;1.10;;
72920;SDS011;61064;51.654;5.476;2022-11-22T10:28:40;8.13;;;1.45;;
72920;SDS011;61064;51.654;5.476;2022-11-22T10:31:16;5.05;;;1.00;;
72920;SDS011;61064;51.654;5.476;2022-11-22T10:36:52;7.20;;;1.03;;
72920;SDS011;61064;51.654;5.476;2022-11-22T10:42:08;5.30;;;0.80;;
72920;SDS011;61064;51.654;5.476;2022-11-22T10:44:53;7.75;;;1.02;;
72920;SDS011;61064;51.654;5.476;2022-11-22T10:50:44;5.67;;;0.90;;
72920;SDS011;61064;51.654;5.476;2022-11-22T11:04:30;4.60;;;0.70;;
72920;SDS011;61064;51.654;5.476;2022-11-22T11:06:59;8.07;;;1.00;;
72920;SDS011;61064;51.654;5.476;2022-11-22T11:09:40;5.47;;;0.80;;
72920;SDS011;61064;51.654;5.476;2022-11-22T11:17:48;4.70;;;0.70;;
72920;SDS011;61064;51.654;5.476;2022-11-22T11:20:26;4.45;;;0.65;;
72920;SDS011;61064;51.654;5.476;2022-11-22T11:22:57;4.63;;;0.60;;
72920;SDS011;61064;51.654;5.476;2022-11-22T11:27:55;4.57;;;0.65;;
72920;SDS011;61064;51.654;5.476;2022-11-22T11:30:23;5.18;;;0.85;;
72920;SDS011;61064;51.654;5.476;2022-11-22T11:32:53;3.13;;;0.80;;
72920;SDS011;61064;51.654;5.476;2022-11-22T11:35:21;4.32;;;0.80;;
72920;SDS011;61064;51.654;5.476;2022-11-22T11:37:51;5.43;;;0.70;;
72920;SDS011;61064;51.654;5.476;2022-11-22T11:40:29;8.50;;;0.80;;
72920;SDS011;61064;51.654;5.476;2022-11-22T11:45:43;5.78;;;0.93;;
72920;SDS011;61064;51.654;5.476;2022-11-22T11:48:25;5.20;;;0.60;;
72920;SDS011;61064;51.654;5.476;2022-11-22T11:50:58;3.92;;;0.80;;
72920;SDS011;61064;51.654;5.476;2022-11-22T11:53:30;6.00;;;0.70;;
72920;SDS011;61064;51.654;5.476;2022-11-22T11:55:56;2.87;;;0.50;;
72920;SDS011;61064;51.654;5.476;2022-11-22T11:58:41;2.72;;;0.60;;
72920;SDS011;61064;51.654;5.476;2022-11-22T12:01:10;3.37;;;0.50;;
72920;SDS011;61064;51.654;5.476;2022-11-22T12:03:35;4.35;;;0.70;;
72920;SDS011;61064;51.654;5.476;2022-11-22T12:06:19;4.27;;;0.70;;
72920;SDS011;61064;51.654;5.476;2022-11-22T12:08:45;3.30;;;0.60;;
72920;SDS011;61064;51.654;5.476;2022-11-22T12:11:11;5.00;;;0.70;;
72920;SDS011;61064;51.654;5.476;2022-11-22T12:13:48;2.85;;;0.40;;
72920;SDS011;61064;51.654;5.476;2022-11-22T12:16:23;3.47;;;0.80;;
72920;SDS011;61064;51.654;5.476;2022-11-22T12:18:54;3.08;;;0.68;;
72920;SDS011;61064;51.654;5.476;2022-11-22T12:24:38;3.33;;;0.40;;
72920;SDS011;61064;51.654;5.476;2022-11-22T12:27:08;3.13;;;0.40;;
72920;SDS011;61064;51.654;5.476;2022-11-22T12:29:34;6.22;;;0.73;;
72920;SDS011;61064;51.654;5.476;2022-11-22T12:32:13;3.40;;;0.38;;
72920;SDS011;61064;51.654;5.476;2022-11-22T12:35:04;2.72;;;0.40;;
72920;SDS011;61064;51.654;5.476;2022-11-22T12:37:40;4.50;;;0.60;;
72920;SDS011;61064;51.654;5.476;2022-11-22T12:40:11;2.22;;;0.30;;
72920;SDS011;61064;51.654;5.476;2022-11-22T12:45:47;2.78;;;0.50;;
72920;SDS011;61064;51.654;5.476;2022-11-22T12:50:55;2.30;;;0.40;;
72920;SDS011;61064;51.654;5.476;2022-11-22T12:53:28;3.90;;;0.57;;
72920;SDS011;61064;51.654;5.476;2022-11-22T12:58:59;2.47;;;0.43;;
72920;SDS011;61064;51.654;5.476;2022-11-22T13:01:36;3.33;;;0.35;;
72920;SDS011;61064;51.654;5.476;2022-11-22T13:06:39;5.55;;;0.70;;
72920;SDS011;61064;51.654;5.476;2022-11-22T13:09:13;4.32;;;0.60;;
72920;SDS011;61064;51.654;5.476;2022-11-22T13:14:44;2.22;;;0.30;;
72920;SDS011;61064;51.654;5.476;2022-11-22T13:17:13;1.50;;;0.20;;
72920;SDS011;61064;51.654;5.476;2022-11-22T13:19:44;1.95;;;0.20;;
72920;SDS011;61064;51.654;5.476;2022-11-22T13:24:54;3.17;;;0.50;;
72920;SDS011;61064;51.654;5.476;2022-11-22T13:27:41;4.57;;;0.47;;
72920;SDS011;61064;51.654;5.476;2022-11-22T13:30:16;2.60;;;0.40;;
72920;SDS011;61064;51.654;5.476;2022-11-22T13:32:43;0.85;;;0.20;;
72920;SDS011;61064;51.654;5.476;2022-11-22T13:37:49;1.60;;;0.37;;
72920;SDS011;61064;51.654;5.476;2022-11-22T13:41:03;1.83;;;0.22;;
72920;SDS011;61064;51.654;5.476;2022-11-22T13:45:59;1.90;;;0.40;;
72920;SDS011;61064;51.654;5.476;2022-11-22T13:51:03;1.30;;;0.30;;
72920;SDS011;61064;51.654;5.476;2022-11-22T13:53:30;3.53;;;0.30;;
72920;SDS011;61064;51.654;5.476;2022-11-22T13:55:58;2.15;;;0.30;;
72920;SDS011;61064;51.654;5.476;2022-11-22T13:59:02;2.97;;;0.40;;
72920;SDS011;61064;51.654;5.476;2022-11-22T14:04:17;1.70;;;0.30;;
72920;SDS011;61064;51.654;5.476;2022-11-22T14:09:38;2.42;;;0.40;;
72920;SDS011;61064;51.654;5.476;2022-11-22T14:22:48;3.08;;;0.40;;
72920;SDS011;61064;51.654;5.476;2022-11-22T14:28:22;3.93;;;0.33;;
72920;SDS011;61064;51.654;5.476;2022-11-22T14:30:51;3.80;;;0.60;;
72920;SDS011;61064;51.654;5.476;2022-11-22T14:33:19;2.08;;;0.40;;
72920;SDS011;61064;51.654;5.476;2022-11-22T14:38:31;5.07;;;0.65;;
72920;SDS011;61064;51.654;5.476;2022-11-22T14:44:07;4.95;;;0.70;;
72920;SDS011;61064;51.654;5.476;2022-11-22T14:52:15;3.92;;;0.60;;
72920;SDS011;61064;51.654;5.476;2022-11-22T14:54:47;2.77;;;0.53;;
72920;SDS011;61064;51.654;5.476;2022-11-22T14:57:20;2.40;;;0.50;;
72920;SDS011;61064;51.654;5.476;2022-11-22T15:02:49;4.63;;;1.00;;
72920;SDS011;61064;51.654;5.476;2022-11-22T15:16:24;2.30;;;0.50;;
72920;SDS011;61064;51.654;5.476;2022-11-22T15:18:52;2.05;;;0.40;;
72920;SDS011;61064;51.654;5.476;2022-11-22T15:21:31;3.03;;;0.43;;
72920;SDS011;61064;51.654;5.476;2022-11-22T15:23:58;1.77;;;0.40;;
72920;SDS011;61064;51.654;5.476;2022-11-22T15:26:25;3.93;;;0.60;;
72920;SDS011;61064;51.654;5.476;2022-11-22T15:28:53;1.85;;;0.40;;
72920;SDS011;61064;51.654;5.476;2022-11-22T15:31:26;4.57;;;0.60;;
72920;SDS011;61064;51.654;5.476;2022-11-22T15:33:56;2.92;;;0.47;;
72920;SDS011;61064;51.654;5.476;2022-11-22T15:38:54;4.97;;;1.00;;
72920;SDS011;61064;51.654;5.476;2022-11-22T15:41:22;5.65;;;0.90;;
72920;SDS011;61064;51.654;5.476;2022-11-22T15:43:50;4.43;;;0.70;;
72920;SDS011;61064;51.654;5.476;2022-11-22T15:46:17;4.25;;;0.90;;
72920;SDS011;61064;51.654;5.476;2022-11-22T15:48:45;4.20;;;0.93;;
72920;SDS011;61064;51.654;5.476;2022-11-22T15:53:39;2.60;;;0.50;;
72920;SDS011;61064;51.654;5.476;2022-11-22T15:56:14;2.83;;;0.40;;
72920;SDS011;61064;51.654;5.476;2022-11-22T15:58:46;2.73;;;0.70;;
72920;SDS011;61064;51.654;5.476;2022-11-22T16:01:14;3.35;;;0.63;;
72920;SDS011;61064;51.654;5.476;2022-11-22T16:03:40;7.35;;;0.80;;
72920;SDS011;61064;51.654;5.476;2022-11-22T16:06:12;2.90;;;0.52;;
72920;SDS011;61064;51.654;5.476;2022-11-22T16:08:51;4.65;;;1.00;;
72920;SDS011;61064;51.654;5.476;2022-11-22T16:11:23;3.50;;;0.80;;
72920;SDS011;61064;51.654;5.476;2022-11-22T16:13:56;2.92;;;0.80;;
72920;SDS011;61064;51.654;5.476;2022-11-22T16:16:32;4.35;;;0.95;;
72920;SDS011;61064;51.654;5.476;2022-11-22T16:21:56;5.88;;;1.17;;
72920;SDS011;61064;51.654;5.476;2022-11-22T16:24:29;4.03;;;1.30;;
72920;SDS011;61064;51.654;5.476;2022-11-22T16:26:56;4.93;;;1.40;;
72920;SDS011;61064;51.654;5.476;2022-11-22T16:29:28;5.32;;;1.58;;
72920;SDS011;61064;51.654;5.476;2022-11-22T16:32:00;6.00;;;1.50;;
72920;SDS011;61064;51.654;5.476;2022-11-22T16:34:27;5.22;;;1.60;;
72920;SDS011;61064;51.654;5.476;2022-11-22T16:36:52;5.23;;;1.53;;
72920;SDS011;61064;51.654;5.476;2022-11-22T16:39:18;5.37;;;1.60;;
72920;SDS011;61064;51.654;5.476;2022-11-22T16:41:43;4.90;;;1.40;;
72920;SDS011;61064;51.654;5.476;2022-11-22T16:44:10;5.90;;;1.63;;
72920;SDS011;61064;51.654;5.476;2022-11-22T16:46:38;7.68;;;1.80;;
72920;SDS011;61064;51.654;5.476;2022-11-22T16:49:10;7.57;;;1.73;;
72920;SDS011;61064;51.654;5.476;2022-11-22T16:51:41;5.40;;;1.70;;
72920;SDS011;61064;51.654;5.476;2022-11-22T16:54:10;6.10;;;1.70;;